Time;durP1;ratioP1;P1;durP2;ratioP2;P2;SDS_P1;SDS_P2;PMS_P1;PMS_P2;Temp;Humidity;BMP_temperature;BMP_pressure;BME280_temperature;BME280_humidity;BME280_pressure;Samples;Min_cycle;Max_cycle;Signal;HPM_P1;HPM_P2
2021/08/16 00:01:40;;;;;;;1.58;0.43;;;;;;;18.65;62.07;100478.28;5034390;28;20033;-61
2021/08/16 00:04:06;;;;;;;3.28;0.90;;;;;;;18.65;62.03;100474.72;5035953;28;20071;-61
2021/08/16 00:06:31;;;;;;;1.75;0.60;;;;;;;18.63;61.93;100477.59;5035662;28;20027;-61
2021/08/16 00:08:56;;;;;;;2.08;0.50;;;;;;;18.62;61.70;100481.31;5034947;28;20084;-61
2021/08/16 00:11:22;;;;;;;1.13;0.35;;;;;;;18.61;61.54;100474.19;5035270;28;20037;-61
2021/08/16 00:13:47;;;;;;;1.77;0.50;;;;;;;18.61;61.44;100474.19;5035341;28;20026;-60
2021/08/16 00:16:12;;;;;;;1.23;0.57;;;;;;;18.64;61.72;100476.56;5035287;28;20460;-61
2021/08/16 00:18:38;;;;;;;2.58;0.52;;;;;;;18.61;61.76;100477.75;5035789;28;20034;-60
2021/08/16 00:21:03;;;;;;;1.80;0.43;;;;;;;18.60;62.04;100477.94;5035088;28;20036;-62
2021/08/16 00:23:29;;;;;;;2.55;0.60;;;;;;;18.62;61.26;100475.88;5033982;28;20156;-60
2021/08/16 00:25:55;;;;;;;1.25;0.32;;;;;;;18.58;61.80;100477.28;5034772;28;20025;-60
2021/08/16 00:28:20;;;;;;;3.70;0.70;;;;;;;18.59;62.49;100477.09;5034765;28;20021;-61
2021/08/16 00:30:46;;;;;;;0.82;0.60;;;;;;;18.59;61.43;100478.97;5035430;28;20545;-61
2021/08/16 00:33:12;;;;;;;1.10;0.40;;;;;;;18.58;62.03;100474.56;5035243;28;20036;-60
2021/08/16 00:35:37;;;;;;;2.90;1.17;;;;;;;18.58;62.25;100475.41;5034897;28;20036;-61
2021/08/16 00:38:03;;;;;;;1.33;0.57;;;;;;;18.56;61.97;100466.56;5034790;28;20041;-61
2021/08/16 00:40:29;;;;;;;2.53;0.70;;;;;;;18.57;62.26;100472.88;5034815;28;20573;-61
2021/08/16 00:42:54;;;;;;;2.22;0.70;;;;;;;18.56;62.49;100466.56;5034617;28;20108;-62
2021/08/16 00:45:19;;;;;;;2.53;0.57;;;;;;;18.56;61.96;100465.72;5051426;28;20104;-60
2021/08/16 00:47:45;;;;;;;2.47;0.57;;;;;;;18.59;62.43;100468.91;5075154;28;20050;-61
2021/08/16 00:50:12;;;;;;;3.15;0.80;;;;;;;18.58;62.20;100467.22;5074550;28;20024;-61
2021/08/16 00:52:42;;;;;;;1.60;0.50;;;;;;;18.55;62.13;100466.75;5074291;28;20039;-61
2021/08/16 00:55:09;;;;;;;2.05;0.60;;;;;;;18.58;61.44;100477.28;5074992;28;20028;-60
2021/08/16 00:57:35;;;;;;;3.50;0.65;;;;;;;18.56;62.70;100472.00;5074317;28;20095;-60
2021/08/16 01:00:03;;;;;;;1.98;0.60;;;;;;;18.58;62.19;100474.56;5074459;28;20025;-61
2021/08/16 01:02:31;;;;;;;3.28;1.02;;;;;;;18.56;62.60;100476.63;5074465;28;20052;-60
2021/08/16 01:05:00;;;;;;;1.88;0.80;;;;;;;18.58;62.94;100486.28;5074044;28;20470;-61
2021/08/16 01:07:25;;;;;;;2.40;0.50;;;;;;;18.56;62.40;100482.91;5074402;28;20024;-61
2021/08/16 01:09:50;;;;;;;1.17;0.60;;;;;;;18.55;61.89;100474.91;5074064;28;20111;-61
2021/08/16 01:12:16;;;;;;;2.03;0.70;;;;;;;18.56;62.78;100471.16;5073983;28;20016;-61
2021/08/16 01:14:41;;;;;;;3.47;0.63;;;;;;;18.55;61.84;100477.66;5074117;28;20020;-61
2021/08/16 01:17:07;;;;;;;1.60;0.40;;;;;;;18.51;62.49;100476.31;5073975;28;20064;-61
2021/08/16 01:19:33;;;;;;;1.67;0.57;;;;;;;18.54;62.28;100478.69;5073988;28;20021;-61
2021/08/16 01:21:59;;;;;;;1.45;0.40;;;;;;;18.53;61.72;100466.94;5073785;28;20029;-60
2021/08/16 01:24:24;;;;;;;2.17;0.43;;;;;;;18.52;62.75;100464.41;5073630;28;20024;-60
2021/08/16 01:26:50;;;;;;;3.20;0.73;;;;;;;18.52;62.59;100464.41;5073892;28;20024;-60
2021/08/16 01:29:21;;;;;;;1.23;0.38;;;;;;;18.51;61.62;100451.81;5073847;28;20044;-60
2021/08/16 01:31:47;;;;;;;1.88;0.50;;;;;;;18.53;63.26;100447.03;5073752;28;20047;-61
2021/08/16 01:34:12;;;;;;;1.30;0.50;;;;;;;18.52;62.10;100453.50;5073760;28;20477;-60
2021/08/16 01:36:40;;;;;;;2.72;0.60;;;;;;;18.50;63.06;100455.56;5073406;28;20043;-61
2021/08/16 01:39:06;;;;;;;2.47;0.50;;;;;;;18.50;62.58;100456.41;5073343;28;20016;-60
2021/08/16 01:41:31;;;;;;;3.80;0.90;;;;;;;18.49;61.76;100457.44;5073731;28;20112;-60
2021/08/16 01:43:57;;;;;;;1.13;0.40;;;;;;;18.49;61.96;100459.31;5073566;28;20028;-60
2021/08/16 01:46:25;;;;;;;2.38;0.65;;;;;;;18.51;62.96;100451.81;5035433;28;20383;-60
2021/08/16 01:48:50;;;;;;;0.77;0.60;;;;;;;18.49;61.89;100453.88;5033569;28;20033;-61
2021/08/16 01:51:16;;;;;;;1.92;0.57;;;;;;;18.47;63.00;100458.63;5033560;28;20112;-61
2021/08/16 01:53:41;;;;;;;1.65;0.55;;;;;;;18.50;62.69;100466.47;5033938;28;20025;-60
2021/08/16 01:56:06;;;;;;;1.38;0.50;;;;;;;18.49;62.42;100459.31;5047563;23;20044;-61
2021/08/16 01:58:32;;;;;;;1.80;0.60;;;;;;;18.46;63.01;100456.94;5053535;28;20450;-60
2021/08/16 02:00:57;;;;;;;1.02;0.50;;;;;;;18.48;63.04;100465.81;5053218;28;20029;-60
2021/08/16 02:03:23;;;;;;;2.33;0.63;;;;;;;18.49;61.91;100468.34;5053313;28;20668;-61
2021/08/16 02:05:49;;;;;;;3.22;0.88;;;;;;;18.48;62.38;100468.53;5053129;28;20028;-60
2021/08/16 02:08:14;;;;;;;0.32;0.30;;;;;;;18.48;62.61;100463.06;5053408;28;20035;-61
2021/08/16 02:10:39;;;;;;;1.40;0.50;;;;;;;18.48;62.71;100463.06;5053249;28;20036;-60
2021/08/16 02:13:05;;;;;;;4.75;0.65;;;;;;;18.45;62.75;100460.69;5053005;28;20031;-61
2021/08/16 02:15:30;;;;;;;1.48;0.55;;;;;;;18.44;62.54;100456.28;5053102;28;20025;-61
2021/08/16 02:17:56;;;;;;;1.85;0.50;;;;;;;18.46;61.71;100456.94;5053267;28;20036;-61
2021/08/16 02:20:21;;;;;;;1.70;0.60;;;;;;;18.46;62.42;100462.38;5053257;28;20021;-61
2021/08/16 02:22:46;;;;;;;2.33;0.50;;;;;;;18.45;62.48;100463.41;5052944;28;20037;-61
2021/08/16 02:25:12;;;;;;;0.88;0.40;;;;;;;18.43;62.49;100470.91;5052532;28;20520;-60
2021/08/16 02:27:49;;;;;;;2.38;0.50;;;;;;;18.45;62.39;100474.31;5052803;28;20066;-60
2021/08/16 02:30:17;;;;;;;1.25;0.55;;;;;;;18.44;62.96;100456.28;5035135;28;20450;-60
2021/08/16 02:32:43;;;;;;;1.60;0.47;;;;;;;18.44;63.03;100451.69;5052988;28;20062;-60
2021/08/16 02:35:12;;;;;;;1.65;0.63;;;;;;;18.44;63.62;100453.56;5053073;28;20036;-59
2021/08/16 02:37:38;;;;;;;1.45;0.43;;;;;;;18.42;62.30;100452.91;5053136;28;20021;-60
2021/08/16 02:40:05;;;;;;;1.45;0.40;;;;;;;18.45;62.87;100452.53;5052873;28;20676;-61
2021/08/16 02:42:30;;;;;;;1.13;0.60;;;;;;;18.42;63.37;100447.44;5052992;28;20029;-60
2021/08/16 02:44:55;;;;;;;3.00;0.32;;;;;;;18.43;62.71;100449.16;5047375;28;20106;-61
2021/08/16 02:47:21;;;;;;;1.85;0.75;;;;;;;18.44;62.06;100439.94;5033437;28;20454;-60
2021/08/16 02:49:51;;;;;;;2.50;0.38;;;;;;;18.38;62.64;100446.13;5032665;28;20116;-60
2021/08/16 02:52:19;;;;;;;1.85;0.63;;;;;;;18.39;63.30;100388.78;5032990;28;20029;-60
2021/08/16 02:54:45;;;;;;;1.80;0.47;;;;;;;18.40;63.30;100381.47;5032966;28;20072;-60
2021/08/16 02:57:12;;;;;;;0.90;0.45;;;;;;;18.40;63.04;100376.03;5032740;28;20060;-61
2021/08/16 02:59:39;;;;;;;2.17;0.60;;;;;;;18.39;62.71;100464.16;5032972;28;20029;-60
2021/08/16 03:02:05;;;;;;;2.35;0.50;;;;;;;18.40;63.33;100447.63;5032740;28;20025;-61
2021/08/16 03:04:30;;;;;;;0.95;0.40;;;;;;;18.38;63.25;100440.69;5032797;28;20037;-60
2021/08/16 03:06:55;;;;;;;2.53;0.50;;;;;;;18.36;62.68;100437.31;5032706;28;20087;-61
2021/08/16 03:09:24;;;;;;;4.13;0.77;;;;;;;18.36;62.92;100426.41;5032513;28;20028;-61
2021/08/16 03:11:49;;;;;;;1.52;0.50;;;;;;;18.38;63.04;100446.13;5032677;28;20029;-61
2021/08/16 03:14:15;;;;;;;1.55;0.40;;;;;;;18.38;63.55;100451.56;5038585;28;20021;-61
2021/08/16 03:16:40;;;;;;;0.75;0.30;;;;;;;18.37;63.95;100458.03;5050865;28;20029;-61
2021/08/16 03:19:05;;;;;;;1.40;0.38;;;;;;;18.37;62.55;100460.75;5032481;28;20026;-61
2021/08/16 03:21:31;;;;;;;2.42;0.57;;;;;;;18.35;63.25;100452.78;5032897;28;20024;-60
2021/08/16 03:23:56;;;;;;;1.42;0.40;;;;;;;18.36;63.00;100412.81;5032349;28;20029;-61
2021/08/16 03:26:21;;;;;;;3.50;0.70;;;;;;;18.36;63.13;100415.53;5032927;28;20040;-61
2021/08/16 03:28:46;;;;;;;1.23;0.50;;;;;;;18.36;63.37;100418.25;5014547;28;20032;-61
2021/08/16 03:31:12;;;;;;;1.70;0.63;;;;;;;18.34;62.77;100419.28;5032619;28;20036;-60
2021/08/16 03:33:37;;;;;;;6.47;0.88;;;;;;;18.33;62.78;100428.47;5032529;28;20029;-61
2021/08/16 03:36:03;;;;;;;1.48;0.30;;;;;;;18.36;62.56;100426.41;5035268;28;20037;-61
2021/08/16 03:38:28;;;;;;;2.58;0.50;;;;;;;18.34;62.36;100410.28;5036488;28;20029;-61
2021/08/16 03:40:54;;;;;;;1.85;0.30;;;;;;;18.32;63.33;100410.47;5035640;28;20076;-61
2021/08/16 03:43:19;;;;;;;1.33;0.47;;;;;;;18.33;62.29;100406.72;5035849;28;20037;-61
2021/08/16 03:45:46;;;;;;;2.20;0.40;;;;;;;18.33;63.87;100412.16;5047524;28;20079;-61
2021/08/16 03:48:11;;;;;;;2.38;0.52;;;;;;;18.31;63.25;100414.22;5043004;28;20360;-61
2021/08/16 03:50:36;;;;;;;1.60;0.50;;;;;;;18.30;63.22;100409.75;5033960;28;20029;-61
2021/08/16 03:53:02;;;;;;;1.17;0.35;;;;;;;18.29;64.00;100412.66;5015640;28;20022;-61
2021/08/16 03:55:27;;;;;;;1.25;0.30;;;;;;;18.28;63.79;100409.09;5015754;28;20398;-61
2021/08/16 03:57:52;;;;;;;1.42;0.40;;;;;;;18.28;63.11;100409.09;5015806;28;20067;-61
2021/08/16 04:00:18;;;;;;;1.23;0.40;;;;;;;18.29;62.84;100410.78;5015823;28;20030;-61
2021/08/16 04:02:45;;;;;;;2.72;0.40;;;;;;;19.17;60.95;100420.28;5015822;28;20406;-58
2021/08/16 04:05:11;;;;;;;1.13;0.20;;;;;;;19.63;59.83;100393.66;5016192;28;20502;-61
2021/08/16 04:07:37;;;;;;;0.70;0.43;;;;;;;19.97;57.62;100382.09;5015793;28;20034;-61
2021/08/16 04:10:03;;;;;;;1.55;0.20;;;;;;;20.17;57.55;100395.16;5015195;28;20041;-61
2021/08/16 04:12:28;;;;;;;1.05;0.30;;;;;;;20.30;57.74;100425.28;5015736;28;20033;-61
2021/08/16 04:14:54;;;;;;;0.73;0.17;;;;;;;20.40;57.31;100434.00;5015754;28;20073;-62
2021/08/16 04:17:19;;;;;;;0.75;0.28;;;;;;;20.53;57.74;100427.88;5015323;28;20030;-61
2021/08/16 04:19:44;;;;;;;0.93;0.10;;;;;;;20.60;57.63;100404.19;5015562;28;20064;-58
2021/08/16 04:22:10;;;;;;;2.08;0.60;;;;;;;20.65;57.80;100399.81;5015485;28;20026;-61
2021/08/16 04:24:35;;;;;;;1.55;0.57;;;;;;;20.72;57.97;100406.19;5015571;28;20032;-61
2021/08/16 04:27:01;;;;;;;1.80;0.38;;;;;;;20.75;57.97;100415.03;5014967;28;20137;-61
2021/08/16 04:29:26;;;;;;;0.30;0.10;;;;;;;20.75;57.95;100409.56;5015323;28;20068;-61
2021/08/16 04:31:52;;;;;;;0.57;0.25;;;;;;;20.76;58.49;100405.81;5015024;28;20021;-61
2021/08/16 04:34:17;;;;;;;1.83;0.40;;;;;;;20.72;58.41;100406.19;5015286;28;20033;-60
2021/08/16 04:36:43;;;;;;;0.93;0.28;;;;;;;20.76;58.44;100405.81;5014972;28;20485;-61
2021/08/16 04:39:08;;;;;;;2.78;0.70;;;;;;;20.73;59.28;100402.44;5015026;28;20035;-61
2021/08/16 04:41:33;;;;;;;1.23;0.38;;;;;;;20.80;58.41;100410.66;5015139;28;20022;-61
2021/08/16 04:43:59;;;;;;;1.33;0.50;;;;;;;20.78;59.20;100403.72;5014786;28;20410;-61
2021/08/16 04:46:24;;;;;;;1.02;0.28;;;;;;;20.85;58.26;100399.16;5031725;28;20418;-61
2021/08/16 04:48:49;;;;;;;1.95;0.60;;;;;;;20.89;58.15;100395.00;5034572;28;20547;-62
2021/08/16 04:51:15;;;;;;;0.85;0.30;;;;;;;20.98;58.38;100396.50;5034801;28;20034;-61
2021/08/16 04:53:40;;;;;;;0.88;0.28;;;;;;;20.94;58.84;100395.22;5034757;28;20060;-61
2021/08/16 04:56:06;;;;;;;0.77;0.35;;;;;;;20.99;58.38;100395.47;5034546;28;20207;-61
2021/08/16 04:58:31;;;;;;;1.73;0.60;;;;;;;20.99;58.96;100390.00;5034565;28;20068;-61
2021/08/16 05:00:56;;;;;;;0.95;0.25;;;;;;;21.05;58.39;100393.84;5034383;28;20031;-61
2021/08/16 05:03:22;;;;;;;1.50;0.20;;;;;;;21.04;57.88;100393.00;5035099;28;20025;-61
2021/08/16 05:05:51;;;;;;;0.95;0.30;;;;;;;21.08;58.17;100387.97;5034383;28;20446;-61
2021/08/16 05:08:17;;;;;;;0.55;0.22;;;;;;;21.13;58.20;100390.94;5034535;28;20064;-61
2021/08/16 05:10:42;;;;;;;1.83;0.45;;;;;;;21.10;58.71;100378.53;5034145;28;20080;-62
2021/08/16 05:13:07;;;;;;;0.50;0.30;;;;;;;21.13;58.74;100391.78;5033984;28;20029;-61
2021/08/16 05:15:33;;;;;;;1.45;0.30;;;;;;;21.14;58.75;100393.47;5034317;28;20025;-62
2021/08/16 05:18:00;;;;;;;1.13;0.30;;;;;;;21.16;58.89;100396.84;5034342;28;20402;-61
2021/08/16 05:20:26;;;;;;;1.58;0.30;;;;;;;21.15;58.27;100395.16;5034052;28;20021;-62
2021/08/16 05:22:51;;;;;;;1.42;0.30;;;;;;;21.13;59.16;100396.41;5034016;28;20056;-61
2021/08/16 05:25:18;;;;;;;1.52;0.40;;;;;;;21.17;58.44;100387.63;5033767;28;20026;-61
2021/08/16 05:27:44;;;;;;;1.27;0.47;;;;;;;21.19;58.36;100395.63;5033553;28;20040;-62
2021/08/16 05:30:10;;;;;;;1.15;0.57;;;;;;;21.21;58.23;100394.38;5033715;28;20056;-61
2021/08/16 05:32:36;;;;;;;0.70;0.30;;;;;;;21.25;58.63;100384.75;5034110;28;20057;-61
2021/08/16 05:35:02;;;;;;;2.85;0.60;;;;;;;21.24;58.95;100379.44;5032069;28;20036;-61
2021/08/16 05:37:27;;;;;;;1.42;0.40;;;;;;;21.25;58.09;100395.69;5018560;28;20033;-61
2021/08/16 05:39:53;;;;;;;3.75;0.60;;;;;;;21.41;58.71;100390.94;5013891;28;20064;-62
2021/08/16 05:42:18;;;;;;;2.78;0.40;;;;;;;21.39;57.39;100390.28;5020576;28;20028;-61
2021/08/16 05:44:43;;;;;;;2.22;0.77;;;;;;;21.28;57.66;100395.28;5032764;28;20028;-61
2021/08/16 05:47:09;;;;;;;0.77;0.40;;;;;;;21.17;57.93;100398.56;5014198;28;20021;-63
2021/08/16 05:49:35;;;;;;;2.78;0.28;;;;;;;21.09;57.63;100401.44;5028052;28;20037;-62
2021/08/16 05:52:00;;;;;;;2.03;0.30;;;;;;;21.02;57.92;100395.09;5032067;28;20108;-64
2021/08/16 05:54:26;;;;;;;2.70;1.05;;;;;;;21.01;57.41;100398.88;5033679;28;20036;-64
2021/08/16 05:56:51;;;;;;;4.63;2.42;;;;;;;21.00;57.87;100400.75;5015408;28;20133;-64
2021/08/16 05:59:17;;;;;;;10.20;4.72;;;;;;;21.01;56.92;100398.88;5032292;28;20032;-64
2021/08/16 06:01:43;;;;;;;14.52;7.88;;;;;;;20.89;56.37;100400.44;5031474;28;20037;-64
2021/08/16 06:04:09;;;;;;;20.13;11.35;;;;;;;20.97;56.18;100386.63;5032766;28;20548;-64
2021/08/16 06:06:35;;;;;;;20.10;13.38;;;;;;;20.91;56.48;100396.47;5032234;28;20033;-63
2021/08/16 06:09:01;;;;;;;22.83;14.93;;;;;;;20.93;56.45;100390.81;5033021;28;20030;-63
2021/08/16 06:11:27;;;;;;;21.42;15.68;;;;;;;20.88;57.58;100390.56;5033038;28;20056;-62
2021/08/16 06:13:52;;;;;;;27.80;18.58;;;;;;;21.12;59.80;100390.09;5033069;28;20083;-61
2021/08/16 06:16:18;;;;;;;397.13;213.98;;;;;;;21.52;60.03;100384.91;5032303;28;20076;-62
2021/08/16 06:18:44;;;;;;;110.07;59.30;;;;;;;21.48;58.62;100391.78;5033366;28;20108;-62
2021/08/16 06:21:09;;;;;;;73.68;45.45;;;;;;;21.43;58.44;100386.94;5042224;28;20032;-62
2021/08/16 06:23:35;;;;;;;53.25;34.85;;;;;;;21.45;58.18;100389.47;5032161;28;20029;-64
2021/08/16 06:26:02;;;;;;;41.10;28.42;;;;;;;21.49;56.90;100390.75;5037923;28;20031;-61
2021/08/16 06:28:27;;;;;;;32.15;24.05;;;;;;;21.50;57.53;100393.31;5039242;28;20037;-61
2021/08/16 06:30:53;;;;;;;26.75;19.95;;;;;;;21.46;58.11;100394.75;5014505;28;20377;-62
2021/08/16 06:33:18;;;;;;;28.02;18.13;;;;;;;21.49;56.78;100388.00;5032380;28;20055;-61
2021/08/16 06:35:44;;;;;;;17.85;15.13;;;;;;;21.49;56.12;100391.59;5028966;28;20033;-62
2021/08/16 06:38:20;;;;;;;17.50;13.32;;;;;;;21.47;57.79;100392.84;5029473;28;20568;-62
2021/08/16 06:40:46;;;;;;;13.75;11.57;;;;;;;21.52;56.85;100395.84;5030687;28;20028;-62
2021/08/16 06:43:11;;;;;;;13.20;11.45;;;;;;;21.54;57.11;100393.75;5031141;28;20060;-62
2021/08/16 06:45:37;;;;;;;11.90;10.27;;;;;;;21.54;56.40;100389.13;5032882;28;20061;-62
2021/08/16 06:48:04;;;;;;;18.88;13.93;;;;;;;21.58;57.35;100386.81;5031921;28;20108;-62
2021/08/16 06:50:29;;;;;;;220.02;132.75;;;;;;;21.91;59.25;100374.09;5029582;28;20077;-61
2021/08/16 06:52:54;;;;;;;108.10;66.88;;;;;;;21.98;58.35;100385.06;5026493;28;20482;-62
2021/08/16 06:55:20;;;;;;;96.50;63.08;;;;;;;22.02;59.86;100383.63;5030728;28;20057;-62
2021/08/16 06:57:45;;;;;;;70.85;45.65;;;;;;;21.92;58.52;100375.78;5032137;28;20029;-62
2021/08/16 07:00:11;;;;;;;42.03;30.48;;;;;;;21.82;58.48;100386.25;5032096;28;20068;-61
2021/08/16 07:02:36;;;;;;;30.73;23.13;;;;;;;21.74;57.94;100378.25;5029426;28;20108;-62
2021/08/16 07:05:04;;;;;;;25.40;18.92;;;;;;;21.71;56.78;100386.88;5031604;28;20037;-61
2021/08/16 07:07:30;;;;;;;18.58;15.32;;;;;;;21.71;57.29;100378.66;5032437;28;20087;-62
2021/08/16 07:09:55;;;;;;;14.80;12.38;;;;;;;21.71;57.38;100351.31;5032593;28;20482;-61
2021/08/16 07:12:20;;;;;;;12.15;9.70;;;;;;;21.70;56.31;100368.78;5033921;28;20041;-62
2021/08/16 07:14:47;;;;;;;9.52;8.32;;;;;;;21.73;56.56;100362.88;5034979;28;20639;-62
2021/08/16 07:17:12;;;;;;;7.72;6.93;;;;;;;21.68;56.37;100372.78;5015711;28;20029;-62
2021/08/16 07:19:38;;;;;;;8.02;6.35;;;;;;;21.75;57.13;100384.56;5035834;28;20029;-61
2021/08/16 07:22:03;;;;;;;6.70;5.72;;;;;;;21.75;56.69;100371.72;5034466;28;20029;-62
2021/08/16 07:24:29;;;;;;;5.35;4.85;;;;;;;21.72;56.16;100369.41;5034164;28;20470;-62
2021/08/16 07:26:55;;;;;;;4.75;4.22;;;;;;;21.70;56.13;100385.19;5035839;28;20406;-62
2021/08/16 07:29:20;;;;;;;4.32;3.92;;;;;;;21.71;55.92;100384.13;5035250;28;20029;-62
2021/08/16 07:31:47;;;;;;;3.70;3.40;;;;;;;21.72;56.60;100394.03;5035078;28;20033;-62
2021/08/16 07:34:12;;;;;;;4.78;3.42;;;;;;;21.71;56.08;100388.78;5035547;28;20466;-62
2021/08/16 07:36:37;;;;;;;3.85;3.40;;;;;;;21.70;56.67;100387.94;5035929;28;20040;-62
2021/08/16 07:39:03;;;;;;;2.90;2.60;;;;;;;21.73;56.44;100387.50;5035312;28;20031;-62
2021/08/16 07:41:28;;;;;;;3.28;2.47;;;;;;;21.73;56.17;100382.03;5035792;28;20052;-62
2021/08/16 07:43:53;;;;;;;3.00;2.58;;;;;;;21.70;55.63;100393.41;5034697;28;20021;-62
2021/08/16 07:46:19;;;;;;;3.42;2.45;;;;;;;21.69;56.24;100388.97;5026333;28;20029;-62
2021/08/16 07:48:44;;;;;;;2.40;2.10;;;;;;;21.71;56.31;100395.09;5033684;28;20101;-61
2021/08/16 07:51:09;;;;;;;2.72;1.92;;;;;;;21.72;55.46;100393.19;5035469;28;20033;-61
2021/08/16 07:53:35;;;;;;;1.95;1.65;;;;;;;21.74;56.37;100393.81;5034957;28;20037;-62
2021/08/16 07:56:00;;;;;;;2.97;1.85;;;;;;;21.70;56.70;100389.81;5034500;28;20120;-61
2021/08/16 07:58:27;;;;;;;4.28;1.75;;;;;;;21.73;56.31;100381.19;5034748;28;20029;-62
2021/08/16 08:00:52;;;;;;;1.50;1.40;;;;;;;21.69;55.45;100380.78;5035092;28;20068;-62
2021/08/16 08:03:17;;;;;;;2.15;1.83;;;;;;;21.73;56.36;100387.50;5034557;28;20489;-61
2021/08/16 08:05:43;;;;;;;2.35;1.30;;;;;;;21.71;56.03;100388.78;5035425;28;20034;-62
2021/08/16 08:08:08;;;;;;;1.02;0.98;;;;;;;21.70;55.77;100390.66;5035016;28;20398;-62
2021/08/16 08:10:33;;;;;;;0.90;0.90;;;;;;;21.72;55.99;100388.56;5034307;28;20025;-62
2021/08/16 08:12:59;;;;;;;1.25;0.90;;;;;;;21.72;56.75;100391.28;5034685;28;20458;-62
2021/08/16 08:15:24;;;;;;;2.17;0.88;;;;;;;21.76;55.73;100391.72;5033770;28;20037;-62
2021/08/16 08:17:50;;;;;;;1.58;0.90;;;;;;;21.74;55.74;100389.19;5034125;28;20037;-62
2021/08/16 08:20:15;;;;;;;0.70;0.70;;;;;;;21.76;55.72;100400.78;5035364;28;20021;-59
2021/08/16 08:22:41;;;;;;;0.82;0.70;;;;;;;21.70;56.09;100404.34;5033885;28;20100;-61
2021/08/16 08:25:07;;;;;;;1.13;0.68;;;;;;;21.76;56.54;100403.50;5035556;28;20031;-62
2021/08/16 08:27:32;;;;;;;1.35;0.88;;;;;;;21.75;55.91;100418.25;5055342;28;20025;-62
2021/08/16 08:29:58;;;;;;;1.27;0.68;;;;;;;21.75;55.10;100407.28;5044979;28;20022;-62
2021/08/16 08:32:23;;;;;;;1.05;0.70;;;;;;;21.72;56.30;100402.25;5033549;28;20029;-61
2021/08/16 08:34:48;;;;;;;0.73;0.55;;;;;;;21.74;55.83;100394.66;5033787;28;20025;-61
2021/08/16 08:37:14;;;;;;;1.75;0.80;;;;;;;21.71;56.30;100395.09;5035656;28;20402;-61
2021/08/16 08:39:45;;;;;;;1.25;0.70;;;;;;;21.76;56.24;100387.09;5034266;28;20040;-61
2021/08/16 08:42:11;;;;;;;1.23;0.52;;;;;;;21.74;56.46;100394.66;5019768;28;20014;-61
2021/08/16 08:44:38;;;;;;;1.98;0.60;;;;;;;21.71;56.54;100397.81;5034226;28;20025;-61
2021/08/16 08:47:04;;;;;;;0.65;0.47;;;;;;;21.78;56.09;100400.56;5034727;28;20580;-62
2021/08/16 08:49:30;;;;;;;1.65;0.85;;;;;;;21.74;55.50;100399.28;5034382;28;20065;-61
2021/08/16 08:51:55;;;;;;;1.70;0.73;;;;;;;21.80;56.13;100402.03;5034286;28;20105;-62
2021/08/16 08:54:20;;;;;;;1.08;0.50;;;;;;;21.75;55.01;100400.97;5033491;28;20033;-62
2021/08/16 08:56:46;;;;;;;0.60;0.30;;;;;;;21.80;55.71;100402.03;5037690;28;20076;-61
2021/08/16 08:59:12;;;;;;;1.00;0.25;;;;;;;21.78;56.95;100400.56;5033220;28;20025;-62
2021/08/16 09:01:58;;;;;;;1.80;0.47;;;;;;;21.76;56.27;100402.66;5031521;28;20063;-62
2021/08/16 09:04:25;;;;;;;0.65;0.35;;;;;;;21.77;55.59;100402.47;5028466;28;20100;-62
2021/08/16 09:06:50;;;;;;;1.33;0.40;;;;;;;21.75;56.53;100396.34;5032608;28;20029;-61
2021/08/16 09:09:16;;;;;;;0.70;0.40;;;;;;;21.76;56.31;100384.34;5025163;28;20037;-61
2021/08/16 09:11:53;;;;;;;0.85;0.30;;;;;;;21.81;56.21;100384.59;5032020;28;20075;-61
2021/08/16 09:14:19;;;;;;;1.30;0.60;;;;;;;21.84;55.56;100388.81;5033578;28;20021;-62
2021/08/16 09:16:46;;;;;;;0.50;0.30;;;;;;;21.79;55.93;100386.69;5026971;28;20071;-61
2021/08/16 09:19:23;;;;;;;1.02;0.47;;;;;;;21.81;56.20;100383.75;5031608;28;20028;-61
2021/08/16 09:22:07;;;;;;;2.30;0.35;;;;;;;21.79;55.47;100375.75;5031827;28;20525;-61
2021/08/16 09:24:36;;;;;;;1.25;0.40;;;;;;;21.80;56.17;100374.69;5030699;28;20111;-60
2021/08/16 09:27:03;;;;;;;1.42;0.30;;;;;;;21.79;55.93;100370.25;5032676;28;20068;-61
2021/08/16 09:29:28;;;;;;;1.10;0.32;;;;;;;21.83;55.47;100365.22;5027606;28;20021;-61
2021/08/16 09:31:57;;;;;;;1.60;0.20;;;;;;;21.81;56.23;100373.63;5031680;28;20029;-61
2021/08/16 09:34:42;;;;;;;0.75;0.30;;;;;;;21.86;55.75;100390.31;5031054;28;20029;-61
2021/08/16 09:37:17;;;;;;;0.63;0.20;;;;;;;21.80;56.13;100385.63;5030813;28;20084;-62
2021/08/16 09:40:18;;;;;;;1.27;0.30;;;;;;;21.89;54.88;100368.00;5030081;28;20032;-59
2021/08/16 09:42:48;;;;;;;0.35;0.30;;;;;;;21.89;55.77;100370.72;4932602;29;20139;-61
2021/08/16 09:45:43;;;;;;;0.10;0.10;;;;;;;21.86;55.87;100371.16;4932503;29;20457;-60
2021/08/16 09:48:23;;;;;;;0.98;0.30;;;;;;;21.86;56.46;100368.41;4935025;29;20024;-61
2021/08/16 09:50:51;;;;;;;1.98;0.45;;;;;;;21.87;55.20;100363.78;4934417;29;20028;-61
2021/08/16 09:53:19;;;;;;;0.93;0.32;;;;;;;21.81;55.78;100357.22;4931631;29;20051;-61
2021/08/16 09:55:47;;;;;;;2.05;0.40;;;;;;;21.87;55.88;100361.88;4932042;29;20051;-62
2021/08/16 09:58:15;;;;;;;1.10;0.30;;;;;;;21.85;56.27;100369.47;4931890;29;20042;-61
2021/08/16 10:00:42;;;;;;;0.73;0.20;;;;;;;21.85;56.32;100353.03;4934474;29;20484;-60
2021/08/16 10:03:08;;;;;;;3.45;0.32;;;;;;;21.87;54.95;100364.63;4932016;29;20083;-61
2021/08/16 10:05:39;;;;;;;3.45;0.57;;;;;;;21.94;55.17;100348.22;4933920;29;20532;-61
2021/08/16 10:08:09;;;;;;;0.73;0.15;;;;;;;21.88;56.18;100341.69;4932350;29;20039;-61
2021/08/16 10:10:36;;;;;;;0.93;0.30;;;;;;;21.86;56.08;100349.25;4929405;29;20035;-60
2021/08/16 10:13:03;;;;;;;0.52;0.30;;;;;;;22.02;55.95;100338.97;4929378;29;20031;-60
2021/08/16 10:15:34;;;;;;;1.88;0.40;;;;;;;22.02;55.79;100336.25;4932926;29;20213;-60
2021/08/16 10:18:00;;;;;;;1.63;0.57;;;;;;;21.95;54.67;100335.38;4992434;28;20030;-62
2021/08/16 10:20:28;;;;;;;2.25;0.30;;;;;;;21.69;54.65;100339.72;4991607;28;20029;-62
2021/08/16 10:22:54;;;;;;;2.33;0.63;;;;;;;21.59;54.04;100331.06;4992310;28;20030;-62
2021/08/16 10:25:19;;;;;;;2.42;0.22;;;;;;;21.54;53.91;100315.28;4993511;28;20114;-62
2021/08/16 10:27:45;;;;;;;2.53;0.60;;;;;;;21.48;54.04;100316.06;5006948;28;20022;-62
2021/08/16 10:30:13;;;;;;;4.57;0.60;;;;;;;21.41;54.24;100317.09;4993522;28;20407;-62
2021/08/16 10:32:38;;;;;;;1.40;0.40;;;;;;;21.34;53.68;100327.19;4991391;28;20073;-63
2021/08/16 10:35:09;;;;;;;1.02;0.35;;;;;;;21.35;53.51;100329.72;4993437;28;20018;-62
2021/08/16 10:37:37;;;;;;;2.00;0.60;;;;;;;21.34;53.17;100321.72;4993728;28;20030;-62
2021/08/16 10:40:13;;;;;;;2.15;0.50;;;;;;;21.34;53.56;100310.78;4993461;28;20026;-62
2021/08/16 10:42:46;;;;;;;3.45;0.80;;;;;;;21.28;54.27;100313.25;4993705;28;20037;-61
2021/08/16 10:45:22;;;;;;;2.65;0.50;;;;;;;21.22;52.64;100308.59;4995817;28;20120;-62
2021/08/16 10:47:58;;;;;;;1.50;0.65;;;;;;;21.23;53.51;100310.25;4996425;28;20018;-61
2021/08/16 10:50:23;;;;;;;1.60;0.40;;;;;;;21.23;53.41;100310.25;4997557;28;20049;-62
2021/08/16 10:52:59;;;;;;;3.13;0.57;;;;;;;21.24;52.60;100311.09;4997140;28;20022;-63
2021/08/16 10:55:25;;;;;;;2.95;0.40;;;;;;;21.22;52.80;100308.59;5003834;28;20403;-62
2021/08/16 10:57:50;;;;;;;2.30;0.30;;;;;;;21.20;53.51;100310.69;5036469;28;20022;-62
2021/08/16 11:00:16;;;;;;;1.35;0.30;;;;;;;21.19;53.22;100300.78;5036813;28;20471;-62
2021/08/16 11:02:42;;;;;;;1.55;0.40;;;;;;;21.15;52.89;100307.69;5036884;28;20115;-63
2021/08/16 11:05:09;;;;;;;3.40;0.52;;;;;;;21.14;52.59;100306.00;5036102;28;20029;-62
2021/08/16 11:07:34;;;;;;;3.20;0.73;;;;;;;21.14;52.86;100294.22;5019482;28;20390;-62
2021/08/16 11:10:11;;;;;;;1.95;0.40;;;;;;;21.14;53.44;100300.53;5045689;28;20028;-62
2021/08/16 11:12:42;;;;;;;3.78;0.73;;;;;;;21.23;52.32;100293.88;5036463;28;20056;-62
2021/08/16 11:15:15;;;;;;;2.58;0.68;;;;;;;21.12;53.09;100291.69;4999679;28;20026;-63
2021/08/16 11:17:40;;;;;;;1.52;0.57;;;;;;;21.13;53.07;100287.06;5017084;28;20053;-62
2021/08/16 11:20:16;;;;;;;1.55;0.40;;;;;;;21.14;52.56;100277.81;5016255;28;20547;-62
2021/08/16 11:22:53;;;;;;;1.35;0.30;;;;;;;21.12;53.61;100269.84;5016309;28;20034;-62